Time;durP1;ratioP1;P1;durP2;ratioP2;P2;SDS_P1;SDS_P2;PMS_P1;PMS_P2;Temp;Humidity;BMP_temperature;BMP_pressure;BME280_temperature;BME280_humidity;BME280_pressure;Samples;Min_cycle;Max_cycle;Signal;HPM_P1;HPM_P2
2023/04/30 00:00:34;;;;;;;13.00;7.95;;;;;;;;;;4977803;28;20029;-74
2023/04/30 00:03:20;;;;;;;11.38;7.53;;;;;;;;;;4977776;28;20051;-74
2023/04/30 00:06:05;;;;;;;12.27;7.95;;;;;;;;;;4977804;28;20506;-74
2023/04/30 00:08:51;;;;;;;13.00;8.00;;;;;;;;;;4978103;28;20023;-76
2023/04/30 00:11:37;;;;;;;13.73;7.88;;;;;;;;;;4978079;28;20110;-75
2023/04/30 00:14:22;;;;;;;12.48;7.90;;;;;;;;;;4981229;28;20027;-73
2023/04/30 00:17:08;;;;;;;21.88;8.02;;;;;;;;;;4963634;28;20363;-75
2023/04/30 00:19:53;;;;;;;14.80;7.78;;;;;;;;;;4978560;28;20027;-75
2023/04/30 00:22:39;;;;;;;11.82;7.55;;;;;;;;;;4962920;28;20478;-75
2023/04/30 00:25:25;;;;;;;12.10;7.93;;;;;;;;;;4964646;28;20023;-75
2023/04/30 00:28:10;;;;;;;11.00;7.50;;;;;;;;;;4977746;28;20059;-76
2023/04/30 00:30:56;;;;;;;11.00;7.38;;;;;;;;;;4956574;28;20428;-75
2023/04/30 00:33:41;;;;;;;11.45;7.05;;;;;;;;;;4958988;28;20027;-74
2023/04/30 00:36:27;;;;;;;10.48;7.53;;;;;;;;;;4959021;29;20027;-74
2023/04/30 00:39:12;;;;;;;15.38;7.78;;;;;;;;;;4959042;28;20038;-76
2023/04/30 00:41:58;;;;;;;10.55;7.20;;;;;;;;;;4959036;28;20151;-74
2023/04/30 00:44:44;;;;;;;12.25;8.18;;;;;;;;;;4958183;28;20368;-75
2023/04/30 00:47:30;;;;;;;14.70;7.80;;;;;;;;;;4944471;29;20042;-74
2023/04/30 00:50:16;;;;;;;10.85;7.22;;;;;;;;;;4958277;28;20131;-74
2023/04/30 00:53:02;;;;;;;9.10;7.22;;;;;;;;;;4942112;29;20031;-74
2023/04/30 00:55:47;;;;;;;14.95;7.18;;;;;;;;;;4945127;28;20066;-74
2023/04/30 00:58:34;;;;;;;9.50;7.07;;;;;;;;;;4945170;28;20131;-74
2023/04/30 01:01:19;;;;;;;12.68;7.93;;;;;;;;;;4942811;29;20363;-75
2023/04/30 01:04:05;;;;;;;13.88;7.07;;;;;;;;;;4957906;29;20031;-74
2023/04/30 01:06:50;;;;;;;13.43;7.65;;;;;;;;;;4944469;29;20031;-75
2023/04/30 01:09:36;;;;;;;14.57;7.93;;;;;;;;;;4957567;28;20424;-74
2023/04/30 01:12:45;;;;;;;16.75;7.57;;;;;;;;;;4957826;29;20019;-74
2023/04/30 01:15:41;;;;;;;11.48;7.90;;;;;;;;;;4942664;29;20152;-75
2023/04/30 01:18:28;;;;;;;16.02;7.88;;;;;;;;;;4957937;28;20019;-75
2023/04/30 01:21:14;;;;;;;15.82;8.15;;;;;;;;;;4958027;28;20034;-75
2023/04/30 01:24:12;;;;;;;18.85;8.48;;;;;;;;;;4944942;28;20027;-74
2023/04/30 01:27:14;;;;;;;12.60;8.02;;;;;;;;;;4958032;28;20034;-75
2023/04/30 01:30:00;;;;;;;40.20;10.52;;;;;;;;;;4956766;28;20023;-76
2023/04/30 01:32:46;;;;;;;20.52;9.68;;;;;;;;;;4957649;28;20045;-75
2023/04/30 01:35:50;;;;;;;26.67;9.88;;;;;;;;;;4942851;29;20023;-76
2023/04/30 01:38:39;;;;;;;19.88;9.07;;;;;;;;;;4944105;28;20019;-76
2023/04/30 01:41:28;;;;;;;16.80;9.13;;;;;;;;;;4941892;29;20026;-76
2023/04/30 01:44:33;;;;;;;16.25;8.52;;;;;;;;;;4943827;29;20034;-75
2023/04/30 01:47:30;;;;;;;21.48;9.88;;;;;;;;;;4957247;29;20471;-75
2023/04/30 01:50:16;;;;;;;23.08;9.85;;;;;;;;;;4941753;29;20419;-74
2023/04/30 01:53:05;;;;;;;22.65;9.63;;;;;;;;;;4956996;29;20564;-75
2023/04/30 01:55:58;;;;;;;13.85;8.82;;;;;;;;;;4956903;28;20031;-75
2023/04/30 01:58:45;;;;;;;12.43;8.27;;;;;;;;;;4957705;28;20079;-75
2023/04/30 02:01:31;;;;;;;19.17;8.65;;;;;;;;;;4956453;28;20493;-75
2023/04/30 02:04:17;;;;;;;19.67;8.95;;;;;;;;;;4957318;28;20086;-75
2023/04/30 02:07:02;;;;;;;16.50;8.73;;;;;;;;;;4957083;29;20113;-75
2023/04/30 02:09:48;;;;;;;28.98;11.52;;;;;;;;;;4942863;28;20122;-74
2023/04/30 02:12:34;;;;;;;27.17;10.73;;;;;;;;;;4956527;29;20035;-75
2023/04/30 02:15:19;;;;;;;39.70;10.85;;;;;;;;;;4943517;29;20027;-75
2023/04/30 02:18:05;;;;;;;18.63;10.25;;;;;;;;;;4956645;28;20055;-75
2023/04/30 02:20:50;;;;;;;20.00;10.15;;;;;;;;;;4956544;28;20022;-75
2023/04/30 02:23:36;;;;;;;18.45;9.32;;;;;;;;;;4956689;28;20027;-75
2023/04/30 02:26:22;;;;;;;18.00;8.80;;;;;;;;;;4956611;29;20030;-76
2023/04/30 02:29:07;;;;;;;18.30;9.32;;;;;;;;;;4956936;29;20024;-74
2023/04/30 02:31:53;;;;;;;13.95;8.65;;;;;;;;;;4942779;29;20078;-75
2023/04/30 02:34:38;;;;;;;12.70;8.02;;;;;;;;;;4959961;29;20363;-75
2023/04/30 02:37:24;;;;;;;12.25;7.65;;;;;;;;;;4943457;29;20074;-74
2023/04/30 02:40:10;;;;;;;12.65;8.48;;;;;;;;;;4942899;29;20094;-75
2023/04/30 02:42:56;;;;;;;12.85;8.43;;;;;;;;;;4943363;29;20019;-75
2023/04/30 02:45:41;;;;;;;14.80;8.38;;;;;;;;;;4956925;29;20407;-75
2023/04/30 02:48:27;;;;;;;12.90;7.43;;;;;;;;;;4956832;29;20464;-75
2023/04/30 02:51:12;;;;;;;11.65;7.53;;;;;;;;;;4956957;28;20027;-75
2023/04/30 02:53:58;;;;;;;13.65;7.82;;;;;;;;;;4947038;29;20090;-75
2023/04/30 02:56:44;;;;;;;12.43;7.80;;;;;;;;;;4948140;28;20035;-76
2023/04/30 02:59:29;;;;;;;25.58;8.85;;;;;;;;;;4960284;28;20343;-75
2023/04/30 03:02:19;;;;;;;13.98;7.90;;;;;;;;;;4959669;29;20055;-74
2023/04/30 03:05:05;;;;;;;14.82;8.65;;;;;;;;;;4959747;29;20098;-75
2023/04/30 03:07:50;;;;;;;16.55;8.10;;;;;;;;;;4960157;28;20023;-74
2023/04/30 03:10:36;;;;;;;11.85;7.97;;;;;;;;;;4945192;29;20030;-75
2023/04/30 03:13:24;;;;;;;12.05;8.07;;;;;;;;;;4959681;29;20440;-74
2023/04/30 03:16:10;;;;;;;18.55;8.68;;;;;;;;;;4959355;29;20106;-76
2023/04/30 03:18:56;;;;;;;11.40;8.07;;;;;;;;;;4959676;29;20042;-74
2023/04/30 03:21:41;;;;;;;14.05;8.80;;;;;;;;;;4945320;29;20019;-74
2023/04/30 03:24:27;;;;;;;13.68;8.60;;;;;;;;;;4945430;29;20078;-73
2023/04/30 03:27:13;;;;;;;16.25;8.70;;;;;;;;;;4945573;29;20079;-78
2023/04/30 03:29:58;;;;;;;16.45;9.05;;;;;;;;;;4958833;28;20114;-76
2023/04/30 03:32:44;;;;;;;17.48;8.80;;;;;;;;;;4959376;29;20034;-75
2023/04/30 03:35:30;;;;;;;12.73;7.88;;;;;;;;;;4957185;29;20100;-74
2023/04/30 03:38:15;;;;;;;16.65;7.80;;;;;;;;;;4958849;29;20099;-74
2023/04/30 03:41:01;;;;;;;14.23;8.13;;;;;;;;;;4959483;28;20027;-73
2023/04/30 03:43:46;;;;;;;19.38;8.23;;;;;;;;;;4958949;29;20470;-75
2023/04/30 03:46:32;;;;;;;12.88;7.68;;;;;;;;;;4959590;28;20035;-75
2023/04/30 03:49:18;;;;;;;15.40;7.93;;;;;;;;;;4958545;28;20036;-74
2023/04/30 03:52:04;;;;;;;11.15;7.47;;;;;;;;;;4958930;29;20019;-76
2023/04/30 03:54:50;;;;;;;11.02;7.75;;;;;;;;;;4958643;29;20144;-74
2023/04/30 03:57:35;;;;;;;12.50;7.50;;;;;;;;;;4945156;29;20023;-75
2023/04/30 04:00:21;;;;;;;11.65;7.28;;;;;;;;;;4958545;28;20147;-76
2023/04/30 04:03:07;;;;;;;12.07;7.00;;;;;;;;;;4958932;29;20027;-75
2023/04/30 04:05:52;;;;;;;13.38;7.85;;;;;;;;;;4943546;29;20038;-75
2023/04/30 04:08:41;;;;;;;11.02;7.78;;;;;;;;;;4957557;28;20463;-75
2023/04/30 04:11:27;;;;;;;14.93;8.35;;;;;;;;;;4958160;28;20027;-74
2023/04/30 04:14:13;;;;;;;15.18;7.97;;;;;;;;;;4958221;29;20054;-74
2023/04/30 04:16:58;;;;;;;12.80;8.38;;;;;;;;;;4958108;29;20050;-76
2023/04/30 04:19:44;;;;;;;14.73;8.65;;;;;;;;;;4958244;28;20023;-76
2023/04/30 04:22:30;;;;;;;13.63;8.88;;;;;;;;;;4958448;29;20070;-75
2023/04/30 04:25:16;;;;;;;18.08;8.68;;;;;;;;;;4958544;29;20442;-75
2023/04/30 04:28:02;;;;;;;15.85;8.40;;;;;;;;;;4958034;29;20031;-75
2023/04/30 04:30:48;;;;;;;14.43;9.68;;;;;;;;;;4957326;28;20090;-74
2023/04/30 04:33:33;;;;;;;15.73;9.90;;;;;;;;;;4958010;29;20371;-74
2023/04/30 04:36:19;;;;;;;15.25;10.02;;;;;;;;;;4942855;29;20440;-74
2023/04/30 04:39:05;;;;;;;13.13;8.95;;;;;;;;;;4958568;28;20038;-74
2023/04/30 04:41:50;;;;;;;12.93;9.27;;;;;;;;;;4958137;29;20019;-75
2023/04/30 04:44:37;;;;;;;11.50;8.35;;;;;;;;;;4943609;29;20019;-75
2023/04/30 04:47:22;;;;;;;14.82;8.57;;;;;;;;;;4943047;29;20051;-75
2023/04/30 04:50:08;;;;;;;11.18;8.27;;;;;;;;;;4944009;29;20031;-75
2023/04/30 04:52:54;;;;;;;12.52;8.35;;;;;;;;;;4957527;29;20027;-75
2023/04/30 04:55:39;;;;;;;11.13;7.32;;;;;;;;;;4957932;29;20343;-75
2023/04/30 04:58:25;;;;;;;12.75;7.65;;;;;;;;;;4956916;29;20039;-74
2023/04/30 05:01:11;;;;;;;13.93;8.05;;;;;;;;;;4957296;28;20023;-75
2023/04/30 05:03:56;;;;;;;11.40;8.00;;;;;;;;;;4944341;29;20038;-75
2023/04/30 05:06:42;;;;;;;18.15;9.10;;;;;;;;;;4957450;29;20062;-76
2023/04/30 05:09:28;;;;;;;12.10;8.88;;;;;;;;;;4943281;28;20034;-74
2023/04/30 05:12:13;;;;;;;12.55;8.07;;;;;;;;;;4957255;29;20392;-74
2023/04/30 05:14:59;;;;;;;10.23;7.53;;;;;;;;;;4944104;29;20559;-74
2023/04/30 05:17:45;;;;;;;12.18;7.45;;;;;;;;;;4957360;29;20101;-74
2023/04/30 05:20:30;;;;;;;12.98;7.22;;;;;;;;;;4956064;28;20163;-75
2023/04/30 05:23:16;;;;;;;13.55;7.32;;;;;;;;;;4957403;29;20108;-75
2023/04/30 05:26:02;;;;;;;10.57;7.15;;;;;;;;;;4943627;29;20042;-75
2023/04/30 05:28:48;;;;;;;9.10;6.85;;;;;;;;;;4941908;29;20022;-75
2023/04/30 05:31:33;;;;;;;9.40;6.95;;;;;;;;;;4941457;29;20058;-78
2023/04/30 05:34:19;;;;;;;10.45;6.80;;;;;;;;;;4957151;29;20027;-75
2023/04/30 05:37:05;;;;;;;12.90;6.88;;;;;;;;;;4957116;29;20019;-76
2023/04/30 05:39:52;;;;;;;10.77;7.05;;;;;;;;;;4956985;28;20104;-76
2023/04/30 05:42:39;;;;;;;10.00;7.00;;;;;;;;;;4943266;29;20055;-75
2023/04/30 05:45:25;;;;;;;9.50;6.80;;;;;;;;;;4957868;29;20102;-75
2023/04/30 05:48:11;;;;;;;11.50;6.95;;;;;;;;;;4958225;29;20035;-77
2023/04/30 05:50:56;;;;;;;10.63;6.50;;;;;;;;;;4959332;28;20047;-75
2023/04/30 05:53:42;;;;;;;10.55;6.90;;;;;;;;;;4973006;29;20027;-74
2023/04/30 05:56:28;;;;;;;8.77;6.30;;;;;;;;;;4959013;29;20287;-75
2023/04/30 05:59:13;;;;;;;11.73;6.90;;;;;;;;;;4957377;29;20047;-75
2023/04/30 06:01:59;;;;;;;12.77;7.28;;;;;;;;;;4957005;29;20019;-76
2023/04/30 06:04:45;;;;;;;9.15;6.38;;;;;;;;;;4942706;29;20030;-76
2023/04/30 06:07:30;;;;;;;10.32;7.10;;;;;;;;;;4956830;29;20025;-75
2023/04/30 06:10:16;;;;;;;10.25;6.95;;;;;;;;;;4956800;28;20031;-76
2023/04/30 06:13:01;;;;;;;12.52;6.80;;;;;;;;;;4955389;29;20030;-75
2023/04/30 06:15:47;;;;;;;9.80;6.85;;;;;;;;;;4958674;29;20023;-75
2023/04/30 06:18:32;;;;;;;9.13;5.70;;;;;;;;;;4957449;29;20023;-75
2023/04/30 06:21:19;;;;;;;8.38;6.43;;;;;;;;;;4956247;28;20114;-74
2023/04/30 06:24:05;;;;;;;9.68;6.60;;;;;;;;;;4941694;29;20062;-74
2023/04/30 06:26:50;;;;;;;8.88;6.10;;;;;;;;;;4955494;29;20023;-75
2023/04/30 06:29:36;;;;;;;9.32;6.80;;;;;;;;;;4956728;28;20098;-74
2023/04/30 06:32:21;;;;;;;9.82;7.20;;;;;;;;;;4957118;28;20047;-75
2023/04/30 06:35:07;;;;;;;13.07;7.00;;;;;;;;;;4960114;29;20019;-75
2023/04/30 06:37:53;;;;;;;13.45;6.80;;;;;;;;;;4960790;28;20022;-74
2023/04/30 06:40:39;;;;;;;10.98;6.90;;;;;;;;;;4959922;28;20432;-74
2023/04/30 06:43:24;;;;;;;11.02;7.18;;;;;;;;;;4960140;29;20031;-75
2023/04/30 06:46:10;;;;;;;8.95;6.88;;;;;;;;;;4960272;29;20035;-74
2023/04/30 06:48:55;;;;;;;13.10;7.35;;;;;;;;;;4959292;29;20026;-75
2023/04/30 06:51:41;;;;;;;10.95;7.15;;;;;;;;;;4959804;29;20064;-74
2023/04/30 06:54:27;;;;;;;12.55;7.28;;;;;;;;;;4945787;29;20166;-75
2023/04/30 06:57:13;;;;;;;10.50;7.00;;;;;;;;;;4959874;29;20462;-74
2023/04/30 06:59:59;;;;;;;10.13;6.57;;;;;;;;;;4959889;28;20059;-74
2023/04/30 07:02:46;;;;;;;13.73;8.18;;;;;;;;;;4959612;29;20078;-75
2023/04/30 07:05:32;;;;;;;10.98;8.15;;;;;;;;;;4944693;29;20019;-74
2023/04/30 07:08:18;;;;;;;10.57;7.35;;;;;;;;;;4959664;29;20471;-74
2023/04/30 07:11:03;;;;;;;11.43;7.70;;;;;;;;;;4959898;28;20034;-75
2023/04/30 07:13:49;;;;;;;14.85;8.63;;;;;;;;;;4959438;29;20078;-74
2023/04/30 07:16:35;;;;;;;12.02;8.20;;;;;;;;;;4959864;29;20110;-73
2023/04/30 07:19:20;;;;;;;10.60;8.00;;;;;;;;;;4945697;28;20023;-74
2023/04/30 07:22:06;;;;;;;14.35;8.32;;;;;;;;;;4959322;29;20452;-74
2023/04/30 07:24:51;;;;;;;12.10;7.85;;;;;;;;;;4959695;29;20027;-75
2023/04/30 07:27:37;;;;;;;10.10;7.97;;;;;;;;;;4945703;29;20094;-74
2023/04/30 07:30:23;;;;;;;11.15;7.72;;;;;;;;;;4959586;28;20047;-75
2023/04/30 07:33:08;;;;;;;10.93;8.02;;;;;;;;;;4960033;29;20383;-76
2023/04/30 07:35:55;;;;;;;13.68;8.05;;;;;;;;;;4959487;29;20070;-76
2023/04/30 07:38:41;;;;;;;13.27;8.38;;;;;;;;;;4944354;29;20019;-75
2023/04/30 07:41:26;;;;;;;11.43;7.03;;;;;;;;;;4959163;28;20016;-76
2023/04/30 07:44:12;;;;;;;15.90;6.82;;;;;;;;;;4959448;28;20030;-76
2023/04/30 07:46:57;;;;;;;12.05;6.65;;;;;;;;;;4959420;29;20031;-74
2023/04/30 07:49:43;;;;;;;12.23;7.15;;;;;;;;;;4958474;28;20116;-74
2023/04/30 07:52:29;;;;;;;9.80;6.15;;;;;;;;;;4958368;29;20024;-75
2023/04/30 07:55:14;;;;;;;10.02;6.50;;;;;;;;;;4958961;29;20027;-75
2023/04/30 07:58:02;;;;;;;11.00;6.55;;;;;;;;;;4959602;28;20015;-76
2023/04/30 08:00:48;;;;;;;10.15;5.80;;;;;;;;;;4958680;28;20027;-75
2023/04/30 08:03:33;;;;;;;12.55;6.03;;;;;;;;;;4962633;28;20026;-76
2023/04/30 08:06:19;;;;;;;8.32;5.57;;;;;;;;;;4975858;28;20090;-73
2023/04/30 08:09:05;;;;;;;9.98;6.15;;;;;;;;;;4978179;28;20344;-74
2023/04/30 08:11:51;;;;;;;6.22;5.30;;;;;;;;;;4977125;28;20106;-73
2023/04/30 08:14:37;;;;;;;10.15;5.80;;;;;;;;;;4976535;28;20029;-73
2023/04/30 08:17:23;;;;;;;7.13;5.55;;;;;;;;;;4977371;28;20022;-74
2023/04/30 08:20:08;;;;;;;11.25;5.50;;;;;;;;;;4977952;28;20057;-75
2023/04/30 08:22:54;;;;;;;14.55;5.90;;;;;;;;;;4976830;28;20065;-74
2023/04/30 08:25:40;;;;;;;8.05;5.18;;;;;;;;;;4977178;28;20059;-76
2023/04/30 08:28:25;;;;;;;6.97;5.30;;;;;;;;;;4977143;28;20034;-77
2023/04/30 08:31:11;;;;;;;8.50;5.03;;;;;;;;;;4977073;28;20051;-78
2023/04/30 08:33:57;;;;;;;7.15;5.13;;;;;;;;;;4977172;28;20038;-76
2023/04/30 08:36:42;;;;;;;6.13;4.72;;;;;;;;;;4977668;28;20344;-77
2023/04/30 08:39:28;;;;;;;7.07;5.00;;;;;;;;;;4976022;28;20031;-77
2023/04/30 08:42:14;;;;;;;8.38;5.13;;;;;;;;;;4977777;28;20026;-77
2023/04/30 08:45:00;;;;;;;7.60;5.28;;;;;;;;;;4976484;28;20050;-76
2023/04/30 08:47:47;;;;;;;8.85;5.45;;;;;;;;;;4976773;28;20019;-77
2023/04/30 08:50:33;;;;;;;7.53;5.22;;;;;;;;;;4976733;28;20329;-77
2023/04/30 08:53:20;;;;;;;9.80;5.15;;;;;;;;;;4976841;28;20387;-77
2023/04/30 08:56:08;;;;;;;7.00;4.85;;;;;;;;;;4975024;28;20403;-76
2023/04/30 08:58:54;;;;;;;7.70;5.00;;;;;;;;;;4984039;28;20042;-76
2023/04/30 09:01:40;;;;;;;5.82;4.80;;;;;;;;;;4993729;28;20057;-77
2023/04/30 09:04:25;;;;;;;7.50;4.80;;;;;;;;;;4978019;28;20018;-77
2023/04/30 09:07:13;;;;;;;9.55;5.40;;;;;;;;;;4981401;28;20026;-77
2023/04/30 09:09:59;;;;;;;8.52;5.22;;;;;;;;;;4975645;28;20031;-77
2023/04/30 09:13:17;;;;;;;13.38;5.30;;;;;;;;;;4976291;28;20332;-80
2023/04/30 09:16:02;;;;;;;10.00;5.63;;;;;;;;;;4968669;28;20038;-78
2023/04/30 09:18:48;;;;;;;7.80;5.00;;;;;;;;;;4976362;28;20057;-77
2023/04/30 09:21:34;;;;;;;9.27;5.07;;;;;;;;;;4976270;28;20022;-79
2023/04/30 09:24:20;;;;;;;9.40;5.53;;;;;;;;;;4976572;28;20081;-78
2023/04/30 09:27:14;;;;;;;5.70;4.85;;;;;;;;;;4975202;28;20027;-77
2023/04/30 09:30:00;;;;;;;8.13;4.43;;;;;;;;;;4976118;28;20038;-78
2023/04/30 09:32:55;;;;;;;6.50;4.20;;;;;;;;;;4991278;28;20027;-75
2023/04/30 09:35:41;;;;;;;12.20;4.65;;;;;;;;;;4981444;28;20031;-77
2023/04/30 09:38:30;;;;;;;5.90;4.32;;;;;;;;;;4976464;28;20081;-76
2023/04/30 09:41:27;;;;;;;7.95;4.82;;;;;;;;;;4976873;28;20458;-77
2023/04/30 09:44:25;;;;;;;7.53;4.80;;;;;;;;;;4975494;28;20035;-77
2023/04/30 09:47:15;;;;;;;6.50;4.90;;;;;;;;;;4962602;28;20142;-77
2023/04/30 09:50:01;;;;;;;7.75;4.38;;;;;;;;;;4976254;28;20026;-78
2023/04/30 09:52:51;;;;;;;7.50;4.63;;;;;;;;;;4976780;28;20023;-78
2023/04/30 09:55:37;;;;;;;6.05;3.83;;;;;;;;;;4976476;28;20166;-79
2023/04/30 09:58:26;;;;;;;6.35;4.22;;;;;;;;;;4975515;28;20047;-76
2023/04/30 10:01:12;;;;;;;7.25;4.30;;;;;;;;;;4975240;28;20031;-77
2023/04/30 10:03:57;;;;;;;6.32;4.38;;;;;;;;;;4961572;28;20026;-77
2023/04/30 10:06:43;;;;;;;5.03;4.22;;;;;;;;;;4976565;28;20023;-76
2023/04/30 10:09:33;;;;;;;9.15;4.28;;;;;;;;;;4980152;28;20042;-78
2023/04/30 10:12:24;;;;;;;8.45;4.72;;;;;;;;;;4979299;28;20029;-76
2023/04/30 10:15:14;;;;;;;6.50;3.53;;;;;;;;;;4979580;28;20026;-77
2023/04/30 10:18:00;;;;;;;6.10;3.70;;;;;;;;;;4980782;28;20054;-76
2023/04/30 10:20:47;;;;;;;8.85;3.83;;;;;;;;;;4983963;28;20101;-77
2023/04/30 10:23:33;;;;;;;7.97;4.32;;;;;;;;;;4980080;28;20031;-76
2023/04/30 10:26:19;;;;;;;6.40;4.47;;;;;;;;;;4979319;28;20033;-78
2023/04/30 10:29:05;;;;;;;6.20;4.18;;;;;;;;;;4980101;28;20388;-78
2023/04/30 10:31:51;;;;;;;9.93;4.13;;;;;;;;;;4979199;28;20082;-78
2023/04/30 10:34:44;;;;;;;6.15;3.92;;;;;;;;;;4964706;28;20037;-78
2023/04/30 10:37:34;;;;;;;6.85;3.70;;;;;;;;;;4965648;28;20018;-75
2023/04/30 10:40:19;;;;;;;6.32;4.25;;;;;;;;;;4978646;28;20022;-76
2023/04/30 10:43:05;;;;;;;8.48;4.40;;;;;;;;;;4979509;28;20061;-75
2023/04/30 10:45:51;;;;;;;7.10;4.88;;;;;;;;;;4979766;28;20355;-75
2023/04/30 10:48:36;;;;;;;5.80;4.10;;;;;;;;;;4979726;28;20030;-76
2023/04/30 10:51:22;;;;;;;7.53;4.03;;;;;;;;;;4978976;28;20042;-75
2023/04/30 10:54:07;;;;;;;8.13;4.05;;;;;;;;;;4979125;28;20027;-75
2023/04/30 10:56:57;;;;;;;8.65;4.32;;;;;;;;;;4978214;28;20078;-75
2023/04/30 10:59:46;;;;;;;7.90;4.00;;;;;;;;;;4978343;28;20023;-76
2023/04/30 11:02:37;;;;;;;6.55;3.50;;;;;;;;;;4978273;28;20026;-75
2023/04/30 11:05:41;;;;;;;7.68;4.32;;;;;;;;;;4978319;28;20081;-76
2023/04/30 11:08:33;;;;;;;5.53;3.88;;;;;;;;;;4978259;28;20027;-75
2023/04/30 11:11:22;;;;;;;4.57;3.70;;;;;;;;;;4978075;28;20026;-76
2023/04/30 11:14:10;;;;;;;16.15;4.60;;;;;;;;;;4978274;28;20039;-74
2023/04/30 11:16:56;;;;;;;5.07;3.50;;;;;;;;;;4977956;28;20054;-76
2023/04/30 11:19:45;;;;;;;8.00;4.50;;;;;;;;;;4977942;28;20109;-76
2023/04/30 11:22:36;;;;;;;4.40;3.50;;;;;;;;;;4978048;28;20067;-75
2023/04/30 11:25:22;;;;;;;6.13;3.30;;;;;;;;;;4965638;28;20101;-75
2023/04/30 11:28:12;;;;;;;8.50;3.30;;;;;;;;;;4979303;28;20038;-76
2023/04/30 11:30:58;;;;;;;5.45;3.30;;;;;;;;;;4964952;28;20479;-76
2023/04/30 11:33:43;;;;;;;5.38;3.33;;;;;;;;;;4977996;28;20031;-75
2023/04/30 11:36:29;;;;;;;7.88;3.70;;;;;;;;;;4964136;28;20457;-75
2023/04/30 11:39:16;;;;;;;4.75;3.50;;;;;;;;;;4978176;28;20042;-76
2023/04/30 11:42:02;;;;;;;6.38;3.63;;;;;;;;;;4977750;28;20025;-76
2023/04/30 11:44:47;;;;;;;6.35;3.70;;;;;;;;;;4976931;28;20030;-75
2023/04/30 11:47:42;;;;;;;6.10;3.60;;;;;;;;;;4978397;28;20078;-76
2023/04/30 11:50:31;;;;;;;8.52;3.72;;;;;;;;;;4978576;28;20025;-75
2023/04/30 11:53:17;;;;;;;8.30;3.90;;;;;;;;;;4977719;28;20042;-75
2023/04/30 11:56:03;;;;;;;5.75;3.70;;;;;;;;;;4977129;28;20066;-75
2023/04/30 12:01:44;;;;;;;6.13;3.70;;;;;;;;;;5192739;23;20051;-76
2023/04/30 12:04:30;;;;;;;4.82;3.80;;;;;;;;;;4964233;28;20026;-75
2023/04/30 12:07:16;;;;;;;6.55;3.83;;;;;;;;;;4977520;28;20470;-75
2023/04/30 12:10:03;;;;;;;6.50;4.05;;;;;;;;;;4963765;28;20367;-75
2023/04/30 12:12:50;;;;;;;7.30;4.20;;;;;;;;;;4962937;28;20054;-75
2023/04/30 12:15:38;;;;;;;5.60;3.67;;;;;;;;;;4977466;28;20026;-76
2023/04/30 12:18:23;;;;;;;11.40;4.45;;;;;;;;;;4977132;28;20033;-75
2023/04/30 12:27:32;;;;;;;6.55;4.13;;;;;;;;;;5068640;23;20060;-78
2023/04/30 12:30:18;;;;;;;4.70;3.67;;;;;;;;;;5025289;28;20485;-78
2023/04/30 12:33:04;;;;;;;4.45;3.38;;;;;;;;;;5015954;28;20060;-78
2023/04/30 12:35:51;;;;;;;5.28;3.60;;;;;;;;;;5016497;28;20446;-78
2023/04/30 12:38:46;;;;;;;6.40;3.80;;;;;;;;;;5017188;28;20025;-77
2023/04/30 12:41:35;;;;;;;9.40;4.50;;;;;;;;;;5013931;28;20006;-76
2023/04/30 12:44:21;;;;;;;5.53;3.65;;;;;;;;;;5021029;28;20520;-76
2023/04/30 12:47:08;;;;;;;5.13;3.70;;;;;;;;;;5015791;28;20045;-77
2023/04/30 12:49:54;;;;;;;6.40;4.00;;;;;;;;;;5016512;28;20076;-77
2023/04/30 12:52:40;;;;;;;5.53;4.32;;;;;;;;;;5001701;28;20025;-78
2023/04/30 12:55:29;;;;;;;5.43;3.75;;;;;;;;;;5002670;28;20017;-78
2023/04/30 12:58:18;;;;;;;5.35;3.45;;;;;;;;;;5001707;28;20021;-78
2023/04/30 13:01:04;;;;;;;7.78;3.95;;;;;;;;;;5022734;28;20022;-78
2023/04/30 13:03:51;;;;;;;10.50;4.00;;;;;;;;;;5012394;28;20026;-78
2023/04/30 13:06:36;;;;;;;7.70;4.20;;;;;;;;;;5017631;28;20030;-79
2023/04/30 13:09:22;;;;;;;6.32;3.90;;;;;;;;;;5015946;28;20104;-78
2023/04/30 13:12:07;;;;;;;8.38;4.22;;;;;;;;;;5015914;28;20037;-77
2023/04/30 13:14:54;;;;;;;7.25;4.40;;;;;;;;;;5014902;28;20101;-77
2023/04/30 13:17:39;;;;;;;5.22;4.30;;;;;;;;;;5015789;28;20032;-77
2023/04/30 13:20:25;;;;;;;5.70;4.20;;;;;;;;;;5015421;28;20048;-77
2023/04/30 13:23:11;;;;;;;5.63;3.88;;;;;;;;;;5014743;28;20488;-77
2023/04/30 13:25:56;;;;;;;4.80;4.10;;;;;;;;;;5015691;28;20053;-77
2023/04/30 13:28:42;;;;;;;8.32;4.20;;;;;;;;;;5015504;28;20026;-78
2023/04/30 13:31:27;;;;;;;8.68;3.83;;;;;;;;;;5015703;28;20026;-77
2023/04/30 13:34:16;;;;;;;7.20;4.38;;;;;;;;;;5001165;28;20022;-77
2023/04/30 13:37:02;;;;;;;5.70;3.88;;;;;;;;;;5015648;28;20029;-77
2023/04/30 13:39:47;;;;;;;5.55;4.30;;;;;;;;;;5015215;28;20026;-77
2023/04/30 13:42:35;;;;;;;7.15;4.35;;;;;;;;;;5000602;28;20022;-77
2023/04/30 13:45:21;;;;;;;9.05;4.38;;;;;;;;;;5015211;28;20105;-77
2023/04/30 13:48:07;;;;;;;5.85;4.22;;;;;;;;;;5015253;28;20084;-77
2023/04/30 13:50:53;;;;;;;5.65;4.20;;;;;;;;;;5014127;28;20034;-77
2023/04/30 13:53:39;;;;;;;7.13;4.72;;;;;;;;;;5017925;28;20022;-75
2023/04/30 13:56:25;;;;;;;6.40;4.25;;;;;;;;;;5022033;28;20018;-76
2023/04/30 13:59:10;;;;;;;7.68;4.43;;;;;;;;;;5016262;28;20034;-78
2023/04/30 14:01:56;;;;;;;5.90;4.70;;;;;;;;;;5015557;28;20025;-78
2023/04/30 14:04:42;;;;;;;7.15;4.70;;;;;;;;;;4984375;28;20026;-78
2023/04/30 14:07:28;;;;;;;6.40;3.97;;;;;;;;;;4980584;28;20030;-78
2023/04/30 14:10:13;;;;;;;8.85;4.45;;;;;;;;;;4994537;28;20033;-78
2023/04/30 14:12:59;;;;;;;8.15;4.38;;;;;;;;;;4994156;28;20023;-77
2023/04/30 14:15:46;;;;;;;5.35;4.53;;;;;;;;;;4994383;28;20068;-78
2023/04/30 14:18:32;;;;;;;9.25;4.25;;;;;;;;;;4994531;28;20030;-78
2023/04/30 14:21:17;;;;;;;28.60;5.30;;;;;;;;;;4980881;28;20030;-76
2023/04/30 14:24:03;;;;;;;8.73;4.53;;;;;;;;;;4994833;28;20030;-77
2023/04/30 14:26:49;;;;;;;8.05;4.00;;;;;;;;;;4980653;28;20046;-78
2023/04/30 14:29:34;;;;;;;5.13;3.70;;;;;;;;;;4995077;28;20038;-78
2023/04/30 14:32:21;;;;;;;8.18;4.30;;;;;;;;;;4980391;28;20105;-76
2023/04/30 14:35:08;;;;;;;7.32;3.95;;;;;;;;;;4981334;28;20022;-78
2023/04/30 14:37:54;;;;;;;8.95;4.55;;;;;;;;;;4981639;28;20109;-77
2023/04/30 14:40:40;;;;;;;7.00;4.35;;;;;;;;;;4994479;28;20053;-78
2023/04/30 14:43:25;;;;;;;6.25;4.60;;;;;;;;;;4993407;28;20027;-77
2023/04/30 14:46:11;;;;;;;6.45;4.20;;;;;;;;;;4993892;28;20061;-78
2023/04/30 14:48:56;;;;;;;7.03;4.10;;;;;;;;;;4993248;28;20104;-78
2023/04/30 14:51:42;;;;;;;6.55;4.28;;;;;;;;;;4994351;28;20061;-78
2023/04/30 14:54:28;;;;;;;7.75;4.15;;;;;;;;;;4998435;28;20027;-76
2023/04/30 14:57:13;;;;;;;7.53;4.03;;;;;;;;;;4998258;28;20036;-77
2023/04/30 14:59:59;;;;;;;4.32;3.90;;;;;;;;;;4997947;28;20045;-78
2023/04/30 15:02:45;;;;;;;7.88;4.35;;;;;;;;;;4997882;28;20022;-78
2023/04/30 15:05:31;;;;;;;5.82;4.20;;;;;;;;;;4997440;28;20026;-77
2023/04/30 15:08:16;;;;;;;4.38;3.85;;;;;;;;;;4984154;28;20057;-77
2023/04/30 15:11:05;;;;;;;6.65;3.88;;;;;;;;;;4997428;28;20402;-77
2023/04/30 15:13:52;;;;;;;7.85;4.00;;;;;;;;;;4983643;28;20034;-77
2023/04/30 15:16:38;;;;;;;9.05;3.85;;;;;;;;;;4997640;28;20077;-78
2023/04/30 15:19:23;;;;;;;7.57;4.22;;;;;;;;;;4988799;28;20127;-78
2023/04/30 15:22:09;;;;;;;16.38;5.05;;;;;;;;;;5017387;28;20018;-78
2023/04/30 15:24:56;;;;;;;6.20;3.70;;;;;;;;;;5000016;28;20014;-78
2023/04/30 15:27:42;;;;;;;5.18;3.45;;;;;;;;;;4998919;28;20100;-79
2023/04/30 15:30:27;;;;;;;6.65;4.00;;;;;;;;;;4997062;28;20397;-78
2023/04/30 15:33:13;;;;;;;7.20;5.03;;;;;;;;;;4997407;28;20022;-78
2023/04/30 15:35:58;;;;;;;9.80;3.90;;;;;;;;;;4998405;28;20031;-77
2023/04/30 15:38:44;;;;;;;8.18;4.30;;;;;;;;;;4997591;28;20141;-77
2023/04/30 15:41:29;;;;;;;9.35;3.92;;;;;;;;;;4997601;28;20101;-77
2023/04/30 15:44:15;;;;;;;5.30;3.97;;;;;;;;;;4996494;28;20351;-78
2023/04/30 15:47:01;;;;;;;5.75;3.80;;;;;;;;;;4985695;28;20014;-76
2023/04/30 15:49:47;;;;;;;6.45;3.67;;;;;;;;;;4997015;28;20014;-78
2023/04/30 15:52:33;;;;;;;7.45;4.00;;;;;;;;;;4997267;28;20022;-78
2023/04/30 15:55:18;;;;;;;6.63;3.70;;;;;;;;;;4997269;28;20018;-75
2023/04/30 15:58:04;;;;;;;4.68;3.60;;;;;;;;;;4996317;28;20363;-78
2023/04/30 16:00:50;;;;;;;5.28;3.80;;;;;;;;;;4996894;28;20439;-76
2023/04/30 16:03:36;;;;;;;5.85;3.67;;;;;;;;;;4983916;28;20026;-78
2023/04/30 16:06:22;;;;;;;5.07;3.65;;;;;;;;;;4995509;28;20018;-78
2023/04/30 16:09:08;;;;;;;5.38;3.60;;;;;;;;;;4982811;28;20034;-78
2023/04/30 16:11:54;;;;;;;6.75;3.58;;;;;;;;;;4997324;28;20366;-77
2023/04/30 16:14:40;;;;;;;5.05;3.65;;;;;;;;;;4997286;28;20121;-77
2023/04/30 16:17:25;;;;;;;7.53;4.10;;;;;;;;;;4997863;28;20031;-78
2023/04/30 16:20:11;;;;;;;9.65;4.10;;;;;;;;;;4997458;28;20081;-77
2023/04/30 16:22:57;;;;;;;8.77;3.63;;;;;;;;;;4996724;28;20034;-78
2023/04/30 16:25:42;;;;;;;3.92;3.53;;;;;;;;;;4997654;28;20133;-78
2023/04/30 16:28:28;;;;;;;5.00;3.22;;;;;;;;;;4982057;28;20022;-78
2023/04/30 16:31:14;;;;;;;19.42;4.72;;;;;;;;;;4981822;28;20041;-78
2023/04/30 16:34:00;;;;;;;5.55;3.50;;;;;;;;;;4983102;28;20498;-79
2023/04/30 16:36:45;;;;;;;6.72;3.92;;;;;;;;;;4996284;28;20033;-78
2023/04/30 16:39:31;;;;;;;4.50;3.63;;;;;;;;;;4996690;28;20026;-77